sensor_id;sensor_type;location;lat;lon;timestamp;temperature;humidity
37998;DHT22;24079;51.824;4.682;2023-02-21T00:02:17;8.80;99.90
37998;DHT22;24079;51.824;4.682;2023-02-21T00:05:01;8.70;99.90
37998;DHT22;24079;51.824;4.682;2023-02-21T00:07:45;8.70;99.90
37998;DHT22;24079;51.824;4.682;2023-02-21T00:10:29;8.70;99.90
37998;DHT22;24079;51.824;4.682;2023-02-21T00:13:13;8.70;99.90
37998;DHT22;24079;51.824;4.682;2023-02-21T00:15:58;8.80;99.90
37998;DHT22;24079;51.824;4.682;2023-02-21T00:18:42;8.70;99.90
37998;DHT22;24079;51.824;4.682;2023-02-21T00:21:29;8.70;99.90
37998;DHT22;24079;51.824;4.682;2023-02-21T00:24:16;8.70;99.90
37998;DHT22;24079;51.824;4.682;2023-02-21T00:27:01;8.70;99.90
37998;DHT22;24079;51.824;4.682;2023-02-21T00:29:49;8.70;99.90
37998;DHT22;24079;51.824;4.682;2023-02-21T00:32:34;8.70;99.90
37998;DHT22;24079;51.824;4.682;2023-02-21T00:35:18;8.70;99.90
37998;DHT22;24079;51.824;4.682;2023-02-21T00:38:02;8.70;99.90
37998;DHT22;24079;51.824;4.682;2023-02-21T00:40:47;8.70;99.90
37998;DHT22;24079;51.824;4.682;2023-02-21T00:43:32;8.70;99.90
37998;DHT22;24079;51.824;4.682;2023-02-21T00:46:18;8.70;99.90
37998;DHT22;24079;51.824;4.682;2023-02-21T00:49:03;8.60;99.90
37998;DHT22;24079;51.824;4.682;2023-02-21T00:51:47;8.70;99.90
37998;DHT22;24079;51.824;4.682;2023-02-21T00:54:32;8.70;99.90
37998;DHT22;24079;51.824;4.682;2023-02-21T00:57:17;8.70;99.90
37998;DHT22;24079;51.824;4.682;2023-02-21T01:00:02;8.70;99.90
37998;DHT22;24079;51.824;4.682;2023-02-21T01:02:46;8.70;99.90
37998;DHT22;24079;51.824;4.682;2023-02-21T01:05:30;8.60;99.90
37998;DHT22;24079;51.824;4.682;2023-02-21T01:08:14;8.60;99.90
37998;DHT22;24079;51.824;4.682;2023-02-21T01:10:58;8.60;99.90
37998;DHT22;24079;51.824;4.682;2023-02-21T01:13:42;8.60;99.90
37998;DHT22;24079;51.824;4.682;2023-02-21T01:16:28;8.60;99.90
37998;DHT22;24079;51.824;4.682;2023-02-21T01:19:13;8.60;99.90
37998;DHT22;24079;51.824;4.682;2023-02-21T01:21:57;8.70;99.90
37998;DHT22;24079;51.824;4.682;2023-02-21T01:24:41;8.60;99.90
37998;DHT22;24079;51.824;4.682;2023-02-21T01:27:25;8.70;99.90
37998;DHT22;24079;51.824;4.682;2023-02-21T01:30:10;8.60;99.90
37998;DHT22;24079;51.824;4.682;2023-02-21T01:32:54;8.70;99.90
37998;DHT22;24079;51.824;4.682;2023-02-21T01:35:38;8.70;99.90
37998;DHT22;24079;51.824;4.682;2023-02-21T01:38:22;8.70;99.90
37998;DHT22;24079;51.824;4.682;2023-02-21T01:41:06;8.70;99.90
37998;DHT22;24079;51.824;4.682;2023-02-21T01:44:00;8.60;99.90
37998;DHT22;24079;51.824;4.682;2023-02-21T01:46:45;8.60;99.90
37998;DHT22;24079;51.824;4.682;2023-02-21T01:49:29;8.60;99.90
37998;DHT22;24079;51.824;4.682;2023-02-21T01:52:14;8.70;99.90
37998;DHT22;24079;51.824;4.682;2023-02-21T01:54:58;8.70;99.90
37998;DHT22;24079;51.824;4.682;2023-02-21T01:57:43;8.60;99.90
37998;DHT22;24079;51.824;4.682;2023-02-21T02:00:28;8.60;99.90
37998;DHT22;24079;51.824;4.682;2023-02-21T02:03:16;8.70;99.90
37998;DHT22;24079;51.824;4.682;2023-02-21T02:06:04;8.70;99.90
37998;DHT22;24079;51.824;4.682;2023-02-21T02:08:49;8.70;99.90
37998;DHT22;24079;51.824;4.682;2023-02-21T02:20:01;8.70;99.90
37998;DHT22;24079;51.824;4.682;2023-02-21T02:25:16;8.60;99.90
37998;DHT22;24079;51.824;4.682;2023-02-21T02:31:44;8.60;99.90
37998;DHT22;24079;51.824;4.682;2023-02-21T02:36:57;8.60;99.90
37998;DHT22;24079;51.824;4.682;2023-02-21T02:42:34;8.60;99.90
37998;DHT22;24079;51.824;4.682;2023-02-21T02:45:13;8.60;99.90
37998;DHT22;24079;51.824;4.682;2023-02-21T02:47:42;8.60;99.90
37998;DHT22;24079;51.824;4.682;2023-02-21T02:50:09;8.60;99.90
37998;DHT22;24079;51.824;4.682;2023-02-21T02:52:36;8.60;99.90
37998;DHT22;24079;51.824;4.682;2023-02-21T02:55:20;8.60;99.90
37998;DHT22;24079;51.824;4.682;2023-02-21T02:57:49;8.60;99.90
37998;DHT22;24079;51.824;4.682;2023-02-21T03:00:16;8.70;99.90
37998;DHT22;24079;51.824;4.682;2023-02-21T03:05:24;8.60;99.90
37998;DHT22;24079;51.824;4.682;2023-02-21T03:08:03;8.50;99.90
37998;DHT22;24079;51.824;4.682;2023-02-21T03:18:48;8.50;99.90
37998;DHT22;24079;51.824;4.682;2023-02-21T03:21:24;8.50;99.90
37998;DHT22;24079;51.824;4.682;2023-02-21T03:23:53;8.60;99.90
37998;DHT22;24079;51.824;4.682;2023-02-21T03:26:21;8.60;99.90
37998;DHT22;24079;51.824;4.682;2023-02-21T03:28:49;8.60;99.90
37998;DHT22;24079;51.824;4.682;2023-02-21T03:31:16;8.60;99.90
37998;DHT22;24079;51.824;4.682;2023-02-21T03:33:44;8.60;99.90
37998;DHT22;24079;51.824;4.682;2023-02-21T03:36:11;8.60;99.90
37998;DHT22;24079;51.824;4.682;2023-02-21T03:38:37;8.60;99.90
37998;DHT22;24079;51.824;4.682;2023-02-21T03:41:05;8.60;99.90
37998;DHT22;24079;51.824;4.682;2023-02-21T03:43:31;8.60;99.90
37998;DHT22;24079;51.824;4.682;2023-02-21T03:45:56;8.60;99.90
37998;DHT22;24079;51.824;4.682;2023-02-21T03:48:22;8.60;99.90
37998;DHT22;24079;51.824;4.682;2023-02-21T03:50:48;8.60;99.90
37998;DHT22;24079;51.824;4.682;2023-02-21T03:53:14;8.70;99.90
37998;DHT22;24079;51.824;4.682;2023-02-21T03:55:40;8.70;99.90
37998;DHT22;24079;51.824;4.682;2023-02-21T03:58:06;8.60;99.90
37998;DHT22;24079;51.824;4.682;2023-02-21T04:00:31;8.60;99.90
37998;DHT22;24079;51.824;4.682;2023-02-21T04:02:57;8.60;99.90
37998;DHT22;24079;51.824;4.682;2023-02-21T04:05:23;8.70;99.90
37998;DHT22;24079;51.824;4.682;2023-02-21T04:07:48;8.60;99.90
37998;DHT22;24079;51.824;4.682;2023-02-21T04:10:14;8.60;99.90
37998;DHT22;24079;51.824;4.682;2023-02-21T04:12:39;8.60;99.90
37998;DHT22;24079;51.824;4.682;2023-02-21T04:15:05;8.60;99.90
37998;DHT22;24079;51.824;4.682;2023-02-21T04:17:31;8.60;99.90
37998;DHT22;24079;51.824;4.682;2023-02-21T04:19:56;8.60;99.90
37998;DHT22;24079;51.824;4.682;2023-02-21T04:22:22;8.60;99.90
37998;DHT22;24079;51.824;4.682;2023-02-21T04:24:48;8.60;99.90
37998;DHT22;24079;51.824;4.682;2023-02-21T04:27:14;8.60;99.90
37998;DHT22;24079;51.824;4.682;2023-02-21T04:29:40;8.60;99.90
37998;DHT22;24079;51.824;4.682;2023-02-21T04:32:06;8.60;99.90
37998;DHT22;24079;51.824;4.682;2023-02-21T04:34:32;8.60;99.90
37998;DHT22;24079;51.824;4.682;2023-02-21T04:36:57;8.60;99.90
37998;DHT22;24079;51.824;4.682;2023-02-21T04:39:23;8.60;99.90
37998;DHT22;24079;51.824;4.682;2023-02-21T04:41:48;8.60;99.90
37998;DHT22;24079;51.824;4.682;2023-02-21T04:44:14;8.70;99.90
37998;DHT22;24079;51.824;4.682;2023-02-21T04:46:41;8.60;99.90
37998;DHT22;24079;51.824;4.682;2023-02-21T04:49:08;8.70;99.90
37998;DHT22;24079;51.824;4.682;2023-02-21T04:51:34;8.70;99.90
37998;DHT22;24079;51.824;4.682;2023-02-21T04:54:00;8.70;99.90
37998;DHT22;24079;51.824;4.682;2023-02-21T04:56:26;8.70;99.90
37998;DHT22;24079;51.824;4.682;2023-02-21T04:58:54;8.70;99.90
37998;DHT22;24079;51.824;4.682;2023-02-21T05:01:20;8.70;99.90
37998;DHT22;24079;51.824;4.682;2023-02-21T05:03:46;8.60;99.90
37998;DHT22;24079;51.824;4.682;2023-02-21T05:06:20;8.70;99.90
37998;DHT22;24079;51.824;4.682;2023-02-21T05:08:47;8.60;99.90
37998;DHT22;24079;51.824;4.682;2023-02-21T05:11:13;8.70;99.90
37998;DHT22;24079;51.824;4.682;2023-02-21T05:13:39;8.70;99.90
37998;DHT22;24079;51.824;4.682;2023-02-21T05:16:05;8.70;99.90
37998;DHT22;24079;51.824;4.682;2023-02-21T05:18:31;8.70;99.90
37998;DHT22;24079;51.824;4.682;2023-02-21T05:20:59;8.70;99.90
37998;DHT22;24079;51.824;4.682;2023-02-21T05:23:25;8.70;99.90
37998;DHT22;24079;51.824;4.682;2023-02-21T05:26:02;8.70;99.90
37998;DHT22;24079;51.824;4.682;2023-02-21T05:28:29;8.70;99.90
37998;DHT22;24079;51.824;4.682;2023-02-21T05:30:55;8.70;99.90
37998;DHT22;24079;51.824;4.682;2023-02-21T05:33:22;8.70;99.90
37998;DHT22;24079;51.824;4.682;2023-02-21T05:35:49;8.70;99.90
37998;DHT22;24079;51.824;4.682;2023-02-21T05:38:16;8.70;99.90
37998;DHT22;24079;51.824;4.682;2023-02-21T05:40:43;8.70;99.90
37998;DHT22;24079;51.824;4.682;2023-02-21T05:43:09;8.70;99.90
37998;DHT22;24079;51.824;4.682;2023-02-21T05:45:35;8.70;99.90
37998;DHT22;24079;51.824;4.682;2023-02-21T05:48:01;8.70;99.90
37998;DHT22;24079;51.824;4.682;2023-02-21T05:50:28;8.60;99.90
37998;DHT22;24079;51.824;4.682;2023-02-21T05:52:58;8.70;99.90
37998;DHT22;24079;51.824;4.682;2023-02-21T05:55:24;8.70;99.90
37998;DHT22;24079;51.824;4.682;2023-02-21T05:57:49;8.70;99.90
37998;DHT22;24079;51.824;4.682;2023-02-21T06:00:17;8.70;99.90
37998;DHT22;24079;51.824;4.682;2023-02-21T06:02:44;8.70;99.90
37998;DHT22;24079;51.824;4.682;2023-02-21T06:05:10;8.60;99.90
37998;DHT22;24079;51.824;4.682;2023-02-21T06:07:36;8.70;99.90
37998;DHT22;24079;51.824;4.682;2023-02-21T06:10:03;8.70;99.90
37998;DHT22;24079;51.824;4.682;2023-02-21T06:12:28;8.70;99.90
37998;DHT22;24079;51.824;4.682;2023-02-21T06:14:54;8.70;99.90
37998;DHT22;24079;51.824;4.682;2023-02-21T06:17:19;8.70;99.90
37998;DHT22;24079;51.824;4.682;2023-02-21T06:19:45;8.60;99.90
37998;DHT22;24079;51.824;4.682;2023-02-21T06:22:11;8.60;99.90
37998;DHT22;24079;51.824;4.682;2023-02-21T06:24:36;8.70;99.90
37998;DHT22;24079;51.824;4.682;2023-02-21T06:27:02;8.60;99.90
37998;DHT22;24079;51.824;4.682;2023-02-21T06:29:28;8.60;99.90
37998;DHT22;24079;51.824;4.682;2023-02-21T06:31:58;8.70;99.90
37998;DHT22;24079;51.824;4.682;2023-02-21T06:34:24;8.70;99.90
37998;DHT22;24079;51.824;4.682;2023-02-21T06:36:54;8.70;99.90
37998;DHT22;24079;51.824;4.682;2023-02-21T06:39:20;8.70;99.90
37998;DHT22;24079;51.824;4.682;2023-02-21T06:41:48;8.70;99.90
37998;DHT22;24079;51.824;4.682;2023-02-21T06:44:14;8.70;99.90
37998;DHT22;24079;51.824;4.682;2023-02-21T06:46:41;8.70;99.90
37998;DHT22;24079;51.824;4.682;2023-02-21T06:49:06;8.70;99.90
37998;DHT22;24079;51.824;4.682;2023-02-21T06:51:36;8.70;99.90
37998;DHT22;24079;51.824;4.682;2023-02-21T06:54:03;8.70;99.90
37998;DHT22;24079;51.824;4.682;2023-02-21T06:56:29;8.70;99.90
37998;DHT22;24079;51.824;4.682;2023-02-21T06:58:56;8.70;99.90
37998;DHT22;24079;51.824;4.682;2023-02-21T07:01:23;8.60;99.90
37998;DHT22;24079;51.824;4.682;2023-02-21T07:03:50;8.60;99.90
37998;DHT22;24079;51.824;4.682;2023-02-21T07:06:17;8.70;99.90
37998;DHT22;24079;51.824;4.682;2023-02-21T07:08:43;8.60;99.90
37998;DHT22;24079;51.824;4.682;2023-02-21T07:11:09;8.70;99.90
37998;DHT22;24079;51.824;4.682;2023-02-21T07:13:35;8.70;99.90
37998;DHT22;24079;51.824;4.682;2023-02-21T07:16:02;8.70;99.90
37998;DHT22;24079;51.824;4.682;2023-02-21T07:18:28;8.70;99.90
37998;DHT22;24079;51.824;4.682;2023-02-21T07:20:54;8.70;99.90
37998;DHT22;24079;51.824;4.682;2023-02-21T07:23:21;8.70;99.90
37998;DHT22;24079;51.824;4.682;2023-02-21T07:25:47;8.70;99.90
37998;DHT22;24079;51.824;4.682;2023-02-21T07:28:13;8.70;99.90
37998;DHT22;24079;51.824;4.682;2023-02-21T07:30:39;8.70;99.90
37998;DHT22;24079;51.824;4.682;2023-02-21T07:33:05;8.70;99.90
37998;DHT22;24079;51.824;4.682;2023-02-21T07:35:31;8.70;99.90
37998;DHT22;24079;51.824;4.682;2023-02-21T07:37:57;8.80;99.90
37998;DHT22;24079;51.824;4.682;2023-02-21T07:40:23;8.70;99.90
37998;DHT22;24079;51.824;4.682;2023-02-21T07:42:49;8.80;99.90
37998;DHT22;24079;51.824;4.682;2023-02-21T07:45:16;8.80;99.90
37998;DHT22;24079;51.824;4.682;2023-02-21T07:47:43;8.80;99.90
37998;DHT22;24079;51.824;4.682;2023-02-21T07:50:11;8.80;99.90
37998;DHT22;24079;51.824;4.682;2023-02-21T07:52:37;8.80;99.90
37998;DHT22;24079;51.824;4.682;2023-02-21T07:55:04;8.80;99.90
37998;DHT22;24079;51.824;4.682;2023-02-21T07:57:30;8.90;99.90
37998;DHT22;24079;51.824;4.682;2023-02-21T07:59:56;8.80;99.90
37998;DHT22;24079;51.824;4.682;2023-02-21T08:02:22;8.80;99.90
37998;DHT22;24079;51.824;4.682;2023-02-21T08:04:52;8.90;99.90
37998;DHT22;24079;51.824;4.682;2023-02-21T08:07:18;8.90;99.90
37998;DHT22;24079;51.824;4.682;2023-02-21T08:09:44;8.90;99.90
37998;DHT22;24079;51.824;4.682;2023-02-21T08:12:11;8.90;99.90
37998;DHT22;24079;51.824;4.682;2023-02-21T08:14:37;8.80;99.90
37998;DHT22;24079;51.824;4.682;2023-02-21T08:17:03;8.90;99.90
37998;DHT22;24079;51.824;4.682;2023-02-21T08:19:29;8.90;99.90
37998;DHT22;24079;51.824;4.682;2023-02-21T08:21:55;8.90;99.90
37998;DHT22;24079;51.824;4.682;2023-02-21T08:24:21;8.90;99.90
37998;DHT22;24079;51.824;4.682;2023-02-21T08:26:47;8.80;99.90
37998;DHT22;24079;51.824;4.682;2023-02-21T08:29:14;8.80;99.90
37998;DHT22;24079;51.824;4.682;2023-02-21T08:31:41;8.80;99.90
37998;DHT22;24079;51.824;4.682;2023-02-21T08:34:09;8.80;99.90
37998;DHT22;24079;51.824;4.682;2023-02-21T08:36:38;8.90;99.90
37998;DHT22;24079;51.824;4.682;2023-02-21T08:39:05;8.90;99.90
37998;DHT22;24079;51.824;4.682;2023-02-21T08:41:42;8.90;99.90
37998;DHT22;24079;51.824;4.682;2023-02-21T08:44:10;8.90;99.90
37998;DHT22;24079;51.824;4.682;2023-02-21T08:46:37;8.90;99.90
37998;DHT22;24079;51.824;4.682;2023-02-21T08:49:04;8.90;99.90
37998;DHT22;24079;51.824;4.682;2023-02-21T08:51:31;8.90;99.90
37998;DHT22;24079;51.824;4.682;2023-02-21T08:53:58;8.90;99.90
37998;DHT22;24079;51.824;4.682;2023-02-21T08:56:25;8.90;99.90
37998;DHT22;24079;51.824;4.682;2023-02-21T08:58:52;8.90;99.90
37998;DHT22;24079;51.824;4.682;2023-02-21T09:01:19;8.90;99.90
37998;DHT22;24079;51.824;4.682;2023-02-21T09:03:46;8.90;99.90
37998;DHT22;24079;51.824;4.682;2023-02-21T09:06:12;8.90;99.90
37998;DHT22;24079;51.824;4.682;2023-02-21T09:08:38;8.90;99.90
37998;DHT22;24079;51.824;4.682;2023-02-21T09:11:06;8.90;99.90
37998;DHT22;24079;51.824;4.682;2023-02-21T09:13:33;9.00;99.90
37998;DHT22;24079;51.824;4.682;2023-02-21T09:16:01;8.90;99.90
37998;DHT22;24079;51.824;4.682;2023-02-21T09:18:28;9.00;99.90
37998;DHT22;24079;51.824;4.682;2023-02-21T09:20:56;9.10;99.90
37998;DHT22;24079;51.824;4.682;2023-02-21T09:23:24;9.00;99.90
37998;DHT22;24079;51.824;4.682;2023-02-21T09:25:50;9.10;99.90
37998;DHT22;24079;51.824;4.682;2023-02-21T09:28:17;9.10;99.90
37998;DHT22;24079;51.824;4.682;2023-02-21T09:30:43;9.00;99.90
37998;DHT22;24079;51.824;4.682;2023-02-21T09:33:10;9.10;99.90
37998;DHT22;24079;51.824;4.682;2023-02-21T09:35:36;9.10;99.90
37998;DHT22;24079;51.824;4.682;2023-02-21T09:38:03;9.10;99.90
37998;DHT22;24079;51.824;4.682;2023-02-21T09:43:00;9.10;99.90
37998;DHT22;24079;51.824;4.682;2023-02-21T09:45:31;9.10;99.90
37998;DHT22;24079;51.824;4.682;2023-02-21T09:48:01;9.20;99.90
37998;DHT22;24079;51.824;4.682;2023-02-21T09:50:32;9.10;99.90
37998;DHT22;24079;51.824;4.682;2023-02-21T09:53:00;9.10;99.90
37998;DHT22;24079;51.824;4.682;2023-02-21T09:55:38;9.10;99.90
37998;DHT22;24079;51.824;4.682;2023-02-21T09:58:10;9.10;99.90
37998;DHT22;24079;51.824;4.682;2023-02-21T10:00:37;9.10;99.90
37998;DHT22;24079;51.824;4.682;2023-02-21T10:05:47;9.20;99.90
37998;DHT22;24079;51.824;4.682;2023-02-21T10:17:00;9.20;99.90
37998;DHT22;24079;51.824;4.682;2023-02-21T10:19:40;9.20;99.90
37998;DHT22;24079;51.824;4.682;2023-02-21T10:22:26;9.20;99.90
37998;DHT22;24079;51.824;4.682;2023-02-21T10:24:53;9.10;99.90
37998;DHT22;24079;51.824;4.682;2023-02-21T10:27:22;9.20;99.90
37998;DHT22;24079;51.824;4.682;2023-02-21T10:30:15;9.20;99.90
37998;DHT22;24079;51.824;4.682;2023-02-21T10:32:45;9.20;99.90
37998;DHT22;24079;51.824;4.682;2023-02-21T10:35:11;9.20;99.90
37998;DHT22;24079;51.824;4.682;2023-02-21T10:37:46;9.20;99.90
37998;DHT22;24079;51.824;4.682;2023-02-21T10:40:29;9.20;99.90
37998;DHT22;24079;51.824;4.682;2023-02-21T10:45:36;9.30;99.90
37998;DHT22;24079;51.824;4.682;2023-02-21T10:48:06;9.30;99.90
37998;DHT22;24079;51.824;4.682;2023-02-21T10:53:05;9.30;99.90
37998;DHT22;24079;51.824;4.682;2023-02-21T10:55:31;9.20;99.90
37998;DHT22;24079;51.824;4.682;2023-02-21T10:58:04;9.20;99.90
37998;DHT22;24079;51.824;4.682;2023-02-21T11:00:36;9.30;99.90
37998;DHT22;24079;51.824;4.682;2023-02-21T11:03:15;9.30;99.90
37998;DHT22;24079;51.824;4.682;2023-02-21T11:05:50;9.30;99.90
37998;DHT22;24079;51.824;4.682;2023-02-21T11:08:34;9.30;99.90
37998;DHT22;24079;51.824;4.682;2023-02-21T11:11:00;9.30;99.90
37998;DHT22;24079;51.824;4.682;2023-02-21T11:13:29;9.20;99.90
37998;DHT22;24079;51.824;4.682;2023-02-21T11:16:18;9.30;99.90
37998;DHT22;24079;51.824;4.682;2023-02-21T11:18:44;9.30;99.90
37998;DHT22;24079;51.824;4.682;2023-02-21T11:21:18;9.40;99.90
37998;DHT22;24079;51.824;4.682;2023-02-21T11:24:04;9.40;99.90
37998;DHT22;24079;51.824;4.682;2023-02-21T11:26:36;9.50;99.90
37998;DHT22;24079;51.824;4.682;2023-02-21T11:29:23;9.50;99.90
37998;DHT22;24079;51.824;4.682;2023-02-21T11:31:52;9.50;99.90
37998;DHT22;24079;51.824;4.682;2023-02-21T11:34:18;9.50;99.90
37998;DHT22;24079;51.824;4.682;2023-02-21T11:36:45;9.50;99.90
37998;DHT22;24079;51.824;4.682;2023-02-21T11:39:22;9.50;99.90
37998;DHT22;24079;51.824;4.682;2023-02-21T11:42:00;9.50;99.90
37998;DHT22;24079;51.824;4.682;2023-02-21T11:47:15;9.40;99.90
37998;DHT22;24079;51.824;4.682;2023-02-21T11:50:11;9.50;99.90
37998;DHT22;24079;51.824;4.682;2023-02-21T11:55:20;9.50;99.90
37998;DHT22;24079;51.824;4.682;2023-02-21T11:58:08;9.60;99.90
37998;DHT22;24079;51.824;4.682;2023-02-21T12:09:27;9.80;99.90
37998;DHT22;24079;51.824;4.682;2023-02-21T12:14:51;9.70;99.90
37998;DHT22;24079;51.824;4.682;2023-02-21T12:17:28;9.60;99.90
37998;DHT22;24079;51.824;4.682;2023-02-21T12:20:10;9.60;99.90
37998;DHT22;24079;51.824;4.682;2023-02-21T12:26:06;9.50;99.90
37998;DHT22;24079;51.824;4.682;2023-02-21T12:36:58;9.60;99.90
37998;DHT22;24079;51.824;4.682;2023-02-21T12:39:45;9.60;99.90
37998;DHT22;24079;51.824;4.682;2023-02-21T12:45:13;9.60;99.90
37998;DHT22;24079;51.824;4.682;2023-02-21T12:47:57;9.70;99.90
37998;DHT22;24079;51.824;4.682;2023-02-21T12:50:26;9.70;99.90
37998;DHT22;24079;51.824;4.682;2023-02-21T12:53:55;9.60;99.90
37998;DHT22;24079;51.824;4.682;2023-02-21T13:01:14;9.60;99.90
37998;DHT22;24079;51.824;4.682;2023-02-21T13:06:31;9.70;99.90
37998;DHT22;24079;51.824;4.682;2023-02-21T13:09:02;9.70;99.90
37998;DHT22;24079;51.824;4.682;2023-02-21T13:14:32;9.80;99.90
37998;DHT22;24079;51.824;4.682;2023-02-21T13:17:00;9.70;99.90
37998;DHT22;24079;51.824;4.682;2023-02-21T13:19:32;9.70;99.90
37998;DHT22;24079;51.824;4.682;2023-02-21T13:22:10;9.70;99.90
37998;DHT22;24079;51.824;4.682;2023-02-21T13:25:02;9.80;99.90
37998;DHT22;24079;51.824;4.682;2023-02-21T13:30:35;9.70;99.90
37998;DHT22;24079;51.824;4.682;2023-02-21T13:33:02;9.60;99.90
37998;DHT22;24079;51.824;4.682;2023-02-21T13:35:38;9.60;99.90
37998;DHT22;24079;51.824;4.682;2023-02-21T13:38:09;9.50;99.90
37998;DHT22;24079;51.824;4.682;2023-02-21T13:40:41;9.50;99.90
37998;DHT22;24079;51.824;4.682;2023-02-21T13:43:19;9.60;99.90
37998;DHT22;24079;51.824;4.682;2023-02-21T13:45:47;9.60;99.90
37998;DHT22;24079;51.824;4.682;2023-02-21T13:48:28;9.50;99.90
37998;DHT22;24079;51.824;4.682;2023-02-21T13:50:56;9.40;99.90
37998;DHT22;24079;51.824;4.682;2023-02-21T13:53:26;9.40;99.90
37998;DHT22;24079;51.824;4.682;2023-02-21T13:58:38;9.40;99.90
37998;DHT22;24079;51.824;4.682;2023-02-21T14:01:39;9.40;99.90
37998;DHT22;24079;51.824;4.682;2023-02-21T14:07:09;9.30;99.90
37998;DHT22;24079;51.824;4.682;2023-02-21T14:09:38;9.30;99.90
37998;DHT22;24079;51.824;4.682;2023-02-21T14:12:04;9.40;99.90
37998;DHT22;24079;51.824;4.682;2023-02-21T14:14:34;9.40;99.90
37998;DHT22;24079;51.824;4.682;2023-02-21T14:17:06;9.40;99.90
37998;DHT22;24079;51.824;4.682;2023-02-21T14:19:43;9.30;99.90
37998;DHT22;24079;51.824;4.682;2023-02-21T14:22:16;9.30;99.90
37998;DHT22;24079;51.824;4.682;2023-02-21T14:24:50;9.30;99.90
37998;DHT22;24079;51.824;4.682;2023-02-21T14:29:44;9.40;99.90
37998;DHT22;24079;51.824;4.682;2023-02-21T14:40:04;9.40;99.90
37998;DHT22;24079;51.824;4.682;2023-02-21T14:45:28;9.20;99.90
37998;DHT22;24079;51.824;4.682;2023-02-21T15:02:33;9.20;99.90
37998;DHT22;24079;51.824;4.682;2023-02-21T15:05:16;9.20;99.90
37998;DHT22;24079;51.824;4.682;2023-02-21T15:10:23;9.20;99.90
37998;DHT22;24079;51.824;4.682;2023-02-21T15:12:50;9.20;99.90
37998;DHT22;24079;51.824;4.682;2023-02-21T15:15:28;9.20;99.90
37998;DHT22;24079;51.824;4.682;2023-02-21T15:18:01;9.30;99.90
37998;DHT22;24079;51.824;4.682;2023-02-21T15:20:28;9.20;99.90
37998;DHT22;24079;51.824;4.682;2023-02-21T15:22:57;9.30;99.90
37998;DHT22;24079;51.824;4.682;2023-02-21T15:25:24;9.30;99.90
37998;DHT22;24079;51.824;4.682;2023-02-21T15:27:52;9.40;99.90
37998;DHT22;24079;51.824;4.682;2023-02-21T15:30:23;9.30;99.90
37998;DHT22;24079;51.824;4.682;2023-02-21T15:33:05;9.30;99.90
37998;DHT22;24079;51.824;4.682;2023-02-21T15:35:35;9.30;99.90
37998;DHT22;24079;51.824;4.682;2023-02-21T15:38:10;9.40;99.90
37998;DHT22;24079;51.824;4.682;2023-02-21T15:40:39;9.40;99.90
37998;DHT22;24079;51.824;4.682;2023-02-21T15:43:06;9.40;99.90
37998;DHT22;24079;51.824;4.682;2023-02-21T15:45:44;9.30;99.90
37998;DHT22;24079;51.824;4.682;2023-02-21T15:48:12;9.20;99.90
37998;DHT22;24079;51.824;4.682;2023-02-21T15:50:42;9.20;99.90
37998;DHT22;24079;51.824;4.682;2023-02-21T15:53:16;9.20;99.90
37998;DHT22;24079;51.824;4.682;2023-02-21T15:55:44;9.10;99.90
37998;DHT22;24079;51.824;4.682;2023-02-21T16:01:09;9.10;99.90
37998;DHT22;24079;51.824;4.682;2023-02-21T16:03:40;9.20;99.90
37998;DHT22;24079;51.824;4.682;2023-02-21T16:06:22;9.20;99.90
37998;DHT22;24079;51.824;4.682;2023-02-21T16:09:30;9.20;99.90
37998;DHT22;24079;51.824;4.682;2023-02-21T16:14:46;9.20;99.90
37998;DHT22;24079;51.824;4.682;2023-02-21T16:17:32;9.30;99.90
37998;DHT22;24079;51.824;4.682;2023-02-21T16:20:01;9.40;99.90
37998;DHT22;24079;51.824;4.682;2023-02-21T16:22:36;9.50;99.90
37998;DHT22;24079;51.824;4.682;2023-02-21T16:27:38;9.60;99.90
37998;DHT22;24079;51.824;4.682;2023-02-21T16:30:06;9.50;99.90
37998;DHT22;24079;51.824;4.682;2023-02-21T16:32:36;9.40;99.90
37998;DHT22;24079;51.824;4.682;2023-02-21T16:35:04;9.40;99.90
37998;DHT22;24079;51.824;4.682;2023-02-21T16:37:30;9.50;99.90
37998;DHT22;24079;51.824;4.682;2023-02-21T16:39:57;9.40;99.90
37998;DHT22;24079;51.824;4.682;2023-02-21T16:42:23;9.40;99.90
37998;DHT22;24079;51.824;4.682;2023-02-21T16:44:49;9.50;99.90
37998;DHT22;24079;51.824;4.682;2023-02-21T16:47:16;9.40;99.90
37998;DHT22;24079;51.824;4.682;2023-02-21T16:49:43;9.40;99.90
37998;DHT22;24079;51.824;4.682;2023-02-21T16:52:13;9.30;99.90
37998;DHT22;24079;51.824;4.682;2023-02-21T16:54:39;9.30;99.90
37998;DHT22;24079;51.824;4.682;2023-02-21T16:57:06;9.20;99.90
37998;DHT22;24079;51.824;4.682;2023-02-21T16:59:32;9.20;99.90
37998;DHT22;24079;51.824;4.682;2023-02-21T17:01:58;9.20;99.90
37998;DHT22;24079;51.824;4.682;2023-02-21T17:04:25;9.20;99.90
37998;DHT22;24079;51.824;4.682;2023-02-21T17:07:01;9.30;99.90
37998;DHT22;24079;51.824;4.682;2023-02-21T17:09:29;9.20;99.90
37998;DHT22;24079;51.824;4.682;2023-02-21T17:11:58;9.30;99.90
37998;DHT22;24079;51.824;4.682;2023-02-21T17:14:25;9.20;99.90
37998;DHT22;24079;51.824;4.682;2023-02-21T17:16:50;9.20;99.90
37998;DHT22;24079;51.824;4.682;2023-02-21T17:19:18;9.20;99.90
37998;DHT22;24079;51.824;4.682;2023-02-21T17:21:46;9.20;99.90
37998;DHT22;24079;51.824;4.682;2023-02-21T17:24:13;9.10;99.90
37998;DHT22;24079;51.824;4.682;2023-02-21T17:26:39;9.00;99.90
37998;DHT22;24079;51.824;4.682;2023-02-21T17:29:06;9.00;99.90
37998;DHT22;24079;51.824;4.682;2023-02-21T17:31:33;9.10;99.90
37998;DHT22;24079;51.824;4.682;2023-02-21T17:33:59;9.10;99.90
37998;DHT22;24079;51.824;4.682;2023-02-21T17:36:27;9.10;99.90
37998;DHT22;24079;51.824;4.682;2023-02-21T17:38:53;9.20;99.90
37998;DHT22;24079;51.824;4.682;2023-02-21T17:41:20;9.10;99.90
37998;DHT22;24079;51.824;4.682;2023-02-21T17:43:46;9.00;99.90
37998;DHT22;24079;51.824;4.682;2023-02-21T17:46:15;9.00;99.90
37998;DHT22;24079;51.824;4.682;2023-02-21T17:48:42;9.00;99.90
37998;DHT22;24079;51.824;4.682;2023-02-21T17:51:13;8.90;99.90
37998;DHT22;24079;51.824;4.682;2023-02-21T17:53:40;8.80;99.90
37998;DHT22;24079;51.824;4.682;2023-02-21T17:56:06;8.90;99.90
37998;DHT22;24079;51.824;4.682;2023-02-21T17:58:32;8.90;99.90
37998;DHT22;24079;51.824;4.682;2023-02-21T18:00:58;8.80;99.90
37998;DHT22;24079;51.824;4.682;2023-02-21T18:03:23;8.90;99.90
37998;DHT22;24079;51.824;4.682;2023-02-21T18:05:50;8.80;99.90
37998;DHT22;24079;51.824;4.682;2023-02-21T18:08:16;8.80;99.90
37998;DHT22;24079;51.824;4.682;2023-02-21T18:10:43;8.80;99.90
37998;DHT22;24079;51.824;4.682;2023-02-21T18:13:19;8.80;99.90
37998;DHT22;24079;51.824;4.682;2023-02-21T18:15:46;8.80;99.90
37998;DHT22;24079;51.824;4.682;2023-02-21T18:18:12;8.80;99.90
37998;DHT22;24079;51.824;4.682;2023-02-21T18:20:39;8.80;99.90
37998;DHT22;24079;51.824;4.682;2023-02-21T18:23:06;8.70;99.90
37998;DHT22;24079;51.824;4.682;2023-02-21T18:25:33;8.60;99.90
37998;DHT22;24079;51.824;4.682;2023-02-21T18:28:00;8.60;99.90
37998;DHT22;24079;51.824;4.682;2023-02-21T18:30:27;8.80;99.90
37998;DHT22;24079;51.824;4.682;2023-02-21T18:32:53;8.80;99.90